sensor_id;sensor_type;location;lat;lon;timestamp;P1;durP1;ratioP1;P2;durP2;ratioP2
75542;SDS011;64129;53.508;10.476;2024-02-15T00:02:22;19.45;;;9.25;;
75542;SDS011;64129;53.508;10.476;2024-02-15T00:04:49;18.70;;;9.30;;
75542;SDS011;64129;53.508;10.476;2024-02-15T00:07:16;24.13;;;10.13;;
75542;SDS011;64129;53.508;10.476;2024-02-15T00:09:43;20.48;;;8.68;;
75542;SDS011;64129;53.508;10.476;2024-02-15T00:12:09;20.50;;;9.95;;
75542;SDS011;64129;53.508;10.476;2024-02-15T00:14:36;22.33;;;9.77;;
75542;SDS011;64129;53.508;10.476;2024-02-15T00:17:04;25.85;;;11.23;;
75542;SDS011;64129;53.508;10.476;2024-02-15T00:19:31;21.60;;;10.07;;
75542;SDS011;64129;53.508;10.476;2024-02-15T00:21:58;27.13;;;11.52;;
75542;SDS011;64129;53.508;10.476;2024-02-15T00:24:24;23.33;;;11.18;;
75542;SDS011;64129;53.508;10.476;2024-02-15T00:26:51;23.08;;;11.05;;
75542;SDS011;64129;53.508;10.476;2024-02-15T00:29:18;24.40;;;11.25;;
75542;SDS011;64129;53.508;10.476;2024-02-15T00:31:44;28.73;;;12.32;;
75542;SDS011;64129;53.508;10.476;2024-02-15T00:34:11;25.65;;;10.77;;
75542;SDS011;64129;53.508;10.476;2024-02-15T00:36:38;26.52;;;11.70;;
75542;SDS011;64129;53.508;10.476;2024-02-15T00:39:04;26.27;;;10.57;;
75542;SDS011;64129;53.508;10.476;2024-02-15T00:41:32;26.65;;;11.70;;
75542;SDS011;64129;53.508;10.476;2024-02-15T00:43:59;28.55;;;11.80;;
75542;SDS011;64129;53.508;10.476;2024-02-15T00:46:26;22.67;;;9.90;;
75542;SDS011;64129;53.508;10.476;2024-02-15T00:48:56;24.35;;;11.00;;
75542;SDS011;64129;53.508;10.476;2024-02-15T00:51:24;23.45;;;10.77;;
75542;SDS011;64129;53.508;10.476;2024-02-15T00:53:50;24.98;;;10.50;;
75542;SDS011;64129;53.508;10.476;2024-02-15T00:56:17;22.50;;;11.88;;
75542;SDS011;64129;53.508;10.476;2024-02-15T00:58:43;25.92;;;11.80;;
75542;SDS011;64129;53.508;10.476;2024-02-15T01:01:10;28.88;;;12.40;;
75542;SDS011;64129;53.508;10.476;2024-02-15T01:03:37;25.65;;;10.88;;
75542;SDS011;64129;53.508;10.476;2024-02-15T01:06:04;27.02;;;11.60;;
75542;SDS011;64129;53.508;10.476;2024-02-15T01:08:32;25.65;;;10.88;;
75542;SDS011;64129;53.508;10.476;2024-02-15T01:10:59;24.85;;;11.70;;
75542;SDS011;64129;53.508;10.476;2024-02-15T01:13:25;26.88;;;11.70;;
75542;SDS011;64129;53.508;10.476;2024-02-15T01:15:52;25.08;;;11.07;;
75542;SDS011;64129;53.508;10.476;2024-02-15T01:18:19;28.98;;;11.65;;
75542;SDS011;64129;53.508;10.476;2024-02-15T01:20:45;28.63;;;11.15;;
75542;SDS011;64129;53.508;10.476;2024-02-15T01:23:12;24.08;;;9.77;;
75542;SDS011;64129;53.508;10.476;2024-02-15T01:25:39;22.52;;;10.05;;
75542;SDS011;64129;53.508;10.476;2024-02-15T01:28:06;22.85;;;9.15;;
75542;SDS011;64129;53.508;10.476;2024-02-15T01:30:32;21.77;;;9.93;;
75542;SDS011;64129;53.508;10.476;2024-02-15T01:32:59;19.70;;;8.48;;
75542;SDS011;64129;53.508;10.476;2024-02-15T01:35:26;23.05;;;9.65;;
75542;SDS011;64129;53.508;10.476;2024-02-15T01:37:53;23.38;;;10.23;;
75542;SDS011;64129;53.508;10.476;2024-02-15T01:40:20;25.73;;;9.02;;
75542;SDS011;64129;53.508;10.476;2024-02-15T01:42:47;26.45;;;10.60;;
75542;SDS011;64129;53.508;10.476;2024-02-15T01:45:16;27.20;;;10.80;;
75542;SDS011;64129;53.508;10.476;2024-02-15T01:47:43;25.35;;;9.43;;
75542;SDS011;64129;53.508;10.476;2024-02-15T01:50:10;28.50;;;11.60;;
75542;SDS011;64129;53.508;10.476;2024-02-15T01:52:39;31.33;;;11.30;;
75542;SDS011;64129;53.508;10.476;2024-02-15T01:55:07;33.40;;;11.32;;
75542;SDS011;64129;53.508;10.476;2024-02-15T01:57:35;28.35;;;10.85;;
75542;SDS011;64129;53.508;10.476;2024-02-15T02:00:05;35.47;;;12.27;;
75542;SDS011;64129;53.508;10.476;2024-02-15T02:02:35;29.25;;;10.82;;
75542;SDS011;64129;53.508;10.476;2024-02-15T02:05:05;30.98;;;11.65;;
75542;SDS011;64129;53.508;10.476;2024-02-15T02:07:32;30.88;;;11.88;;
75542;SDS011;64129;53.508;10.476;2024-02-15T02:09:58;35.67;;;12.68;;
75542;SDS011;64129;53.508;10.476;2024-02-15T02:12:25;37.45;;;12.35;;
75542;SDS011;64129;53.508;10.476;2024-02-15T02:14:54;33.60;;;12.45;;
75542;SDS011;64129;53.508;10.476;2024-02-15T02:17:20;27.52;;;10.27;;
75542;SDS011;64129;53.508;10.476;2024-02-15T02:19:47;32.88;;;11.63;;
75542;SDS011;64129;53.508;10.476;2024-02-15T02:22:17;31.00;;;11.48;;
75542;SDS011;64129;53.508;10.476;2024-02-15T02:27:35;27.23;;;10.63;;
75542;SDS011;64129;53.508;10.476;2024-02-15T02:30:15;30.70;;;11.55;;
75542;SDS011;64129;53.508;10.476;2024-02-15T02:32:45;28.98;;;11.82;;
75542;SDS011;64129;53.508;10.476;2024-02-15T02:35:15;28.80;;;11.15;;
75542;SDS011;64129;53.508;10.476;2024-02-15T02:37:42;32.75;;;12.63;;
75542;SDS011;64129;53.508;10.476;2024-02-15T02:40:09;30.75;;;12.05;;
75542;SDS011;64129;53.508;10.476;2024-02-15T02:42:52;29.63;;;11.63;;
75542;SDS011;64129;53.508;10.476;2024-02-15T02:45:25;32.55;;;12.82;;
75542;SDS011;64129;53.508;10.476;2024-02-15T02:47:52;32.95;;;12.98;;
75542;SDS011;64129;53.508;10.476;2024-02-15T02:50:20;36.83;;;13.50;;
75542;SDS011;64129;53.508;10.476;2024-02-15T02:52:47;33.40;;;11.98;;
75542;SDS011;64129;53.508;10.476;2024-02-15T02:55:14;34.17;;;12.27;;
75542;SDS011;64129;53.508;10.476;2024-02-15T02:57:42;33.10;;;12.05;;
75542;SDS011;64129;53.508;10.476;2024-02-15T03:00:17;36.15;;;13.00;;
75542;SDS011;64129;53.508;10.476;2024-02-15T03:02:45;33.10;;;12.15;;
75542;SDS011;64129;53.508;10.476;2024-02-15T03:07:39;27.15;;;12.07;;
75542;SDS011;64129;53.508;10.476;2024-02-15T03:10:10;31.48;;;11.70;;
75542;SDS011;64129;53.508;10.476;2024-02-15T03:12:40;34.72;;;12.68;;
75542;SDS011;64129;53.508;10.476;2024-02-15T03:15:06;32.60;;;11.85;;
75542;SDS011;64129;53.508;10.476;2024-02-15T03:17:41;41.60;;;12.95;;
75542;SDS011;64129;53.508;10.476;2024-02-15T03:20:09;37.75;;;12.88;;
75542;SDS011;64129;53.508;10.476;2024-02-15T03:22:38;37.75;;;12.60;;
75542;SDS011;64129;53.508;10.476;2024-02-15T03:25:05;37.63;;;12.05;;
75542;SDS011;64129;53.508;10.476;2024-02-15T03:27:35;37.33;;;11.70;;
75542;SDS011;64129;53.508;10.476;2024-02-15T03:30:03;43.33;;;12.95;;
75542;SDS011;64129;53.508;10.476;2024-02-15T03:32:30;33.80;;;10.93;;
75542;SDS011;64129;53.508;10.476;2024-02-15T03:34:57;36.13;;;11.85;;
75542;SDS011;64129;53.508;10.476;2024-02-15T03:37:23;36.83;;;12.40;;
75542;SDS011;64129;53.508;10.476;2024-02-15T03:39:50;39.75;;;11.50;;
75542;SDS011;64129;53.508;10.476;2024-02-15T03:42:17;37.08;;;12.77;;
75542;SDS011;64129;53.508;10.476;2024-02-15T03:44:43;37.38;;;12.77;;
75542;SDS011;64129;53.508;10.476;2024-02-15T03:47:10;36.50;;;12.80;;
75542;SDS011;64129;53.508;10.476;2024-02-15T03:49:39;32.38;;;11.82;;
75542;SDS011;64129;53.508;10.476;2024-02-15T03:52:08;28.88;;;11.05;;
75542;SDS011;64129;53.508;10.476;2024-02-15T03:54:36;34.83;;;12.05;;
75542;SDS011;64129;53.508;10.476;2024-02-15T03:57:03;19.75;;;8.15;;
75542;SDS011;64129;53.508;10.476;2024-02-15T03:59:32;27.83;;;9.77;;
75542;SDS011;64129;53.508;10.476;2024-02-15T04:02:01;24.05;;;8.73;;
75542;SDS011;64129;53.508;10.476;2024-02-15T04:04:29;30.52;;;10.50;;
75542;SDS011;64129;53.508;10.476;2024-02-15T04:06:56;28.23;;;9.60;;
75542;SDS011;64129;53.508;10.476;2024-02-15T04:09:23;24.15;;;9.00;;
75542;SDS011;64129;53.508;10.476;2024-02-15T04:11:50;23.35;;;8.68;;
75542;SDS011;64129;53.508;10.476;2024-02-15T04:14:19;22.65;;;8.43;;
75542;SDS011;64129;53.508;10.476;2024-02-15T04:16:46;23.13;;;9.13;;
75542;SDS011;64129;53.508;10.476;2024-02-15T04:19:12;24.30;;;9.10;;
75542;SDS011;64129;53.508;10.476;2024-02-15T04:21:39;27.35;;;9.57;;
75542;SDS011;64129;53.508;10.476;2024-02-15T04:24:06;29.55;;;10.63;;
75542;SDS011;64129;53.508;10.476;2024-02-15T04:26:32;27.83;;;8.73;;
75542;SDS011;64129;53.508;10.476;2024-02-15T04:28:59;26.63;;;9.45;;
75542;SDS011;64129;53.508;10.476;2024-02-15T04:31:26;18.00;;;7.25;;
75542;SDS011;64129;53.508;10.476;2024-02-15T04:33:53;24.33;;;9.80;;
75542;SDS011;64129;53.508;10.476;2024-02-15T04:36:20;26.13;;;9.75;;
75542;SDS011;64129;53.508;10.476;2024-02-15T04:38:51;29.80;;;11.27;;
75542;SDS011;64129;53.508;10.476;2024-02-15T04:41:18;31.77;;;11.25;;
75542;SDS011;64129;53.508;10.476;2024-02-15T04:43:46;28.85;;;9.55;;
75542;SDS011;64129;53.508;10.476;2024-02-15T04:46:13;30.88;;;10.93;;
75542;SDS011;64129;53.508;10.476;2024-02-15T04:48:40;30.90;;;9.85;;
75542;SDS011;64129;53.508;10.476;2024-02-15T04:51:11;30.58;;;10.45;;
75542;SDS011;64129;53.508;10.476;2024-02-15T04:53:37;32.28;;;11.52;;
75542;SDS011;64129;53.508;10.476;2024-02-15T04:56:05;35.63;;;11.85;;
75542;SDS011;64129;53.508;10.476;2024-02-15T04:58:40;30.25;;;10.48;;
75542;SDS011;64129;53.508;10.476;2024-02-15T05:01:16;32.28;;;11.00;;
75542;SDS011;64129;53.508;10.476;2024-02-15T05:03:43;31.33;;;10.95;;
75542;SDS011;64129;53.508;10.476;2024-02-15T05:06:10;43.63;;;12.95;;
75542;SDS011;64129;53.508;10.476;2024-02-15T05:08:39;36.42;;;11.25;;
75542;SDS011;64129;53.508;10.476;2024-02-15T05:11:09;35.28;;;11.60;;
75542;SDS011;64129;53.508;10.476;2024-02-15T05:13:44;34.78;;;11.18;;
75542;SDS011;64129;53.508;10.476;2024-02-15T05:16:13;31.85;;;11.65;;
75542;SDS011;64129;53.508;10.476;2024-02-15T05:18:40;30.50;;;10.30;;
75542;SDS011;64129;53.508;10.476;2024-02-15T05:21:06;41.08;;;12.40;;
75542;SDS011;64129;53.508;10.476;2024-02-15T05:23:36;35.55;;;12.02;;
75542;SDS011;64129;53.508;10.476;2024-02-15T05:26:03;39.00;;;10.90;;
75542;SDS011;64129;53.508;10.476;2024-02-15T05:28:30;29.67;;;10.27;;
75542;SDS011;64129;53.508;10.476;2024-02-15T05:31:09;28.02;;;11.27;;
75542;SDS011;64129;53.508;10.476;2024-02-15T05:33:51;39.55;;;12.27;;
75542;SDS011;64129;53.508;10.476;2024-02-15T05:36:20;32.70;;;11.40;;
75542;SDS011;64129;53.508;10.476;2024-02-15T05:38:49;37.55;;;11.35;;
75542;SDS011;64129;53.508;10.476;2024-02-15T05:41:18;31.15;;;10.27;;
75542;SDS011;64129;53.508;10.476;2024-02-15T05:43:46;36.53;;;11.13;;
75542;SDS011;64129;53.508;10.476;2024-02-15T05:46:14;35.33;;;12.32;;
75542;SDS011;64129;53.508;10.476;2024-02-15T05:48:41;37.15;;;12.10;;
75542;SDS011;64129;53.508;10.476;2024-02-15T05:51:07;42.00;;;11.70;;
75542;SDS011;64129;53.508;10.476;2024-02-15T05:53:34;40.15;;;12.63;;
75542;SDS011;64129;53.508;10.476;2024-02-15T05:56:02;27.98;;;10.48;;
75542;SDS011;64129;53.508;10.476;2024-02-15T05:58:39;34.83;;;12.43;;
75542;SDS011;64129;53.508;10.476;2024-02-15T06:01:06;31.67;;;12.65;;
75542;SDS011;64129;53.508;10.476;2024-02-15T06:03:33;35.72;;;11.02;;
75542;SDS011;64129;53.508;10.476;2024-02-15T06:06:04;33.17;;;11.77;;
75542;SDS011;64129;53.508;10.476;2024-02-15T06:08:34;42.08;;;12.55;;
75542;SDS011;64129;53.508;10.476;2024-02-15T06:11:02;41.10;;;12.32;;
75542;SDS011;64129;53.508;10.476;2024-02-15T06:15:57;37.67;;;13.00;;
75542;SDS011;64129;53.508;10.476;2024-02-15T06:18:24;35.65;;;12.40;;
75542;SDS011;64129;53.508;10.476;2024-02-15T06:20:54;39.58;;;12.70;;
75542;SDS011;64129;53.508;10.476;2024-02-15T06:23:23;38.05;;;13.05;;
75542;SDS011;64129;53.508;10.476;2024-02-15T06:25:51;43.35;;;13.55;;
75542;SDS011;64129;53.508;10.476;2024-02-15T06:28:22;33.17;;;12.27;;
75542;SDS011;64129;53.508;10.476;2024-02-15T06:31:08;42.78;;;13.15;;
75542;SDS011;64129;53.508;10.476;2024-02-15T06:33:54;44.85;;;14.45;;
75542;SDS011;64129;53.508;10.476;2024-02-15T06:37:01;47.42;;;13.48;;
75542;SDS011;64129;53.508;10.476;2024-02-15T06:39:45;42.28;;;13.43;;
75542;SDS011;64129;53.508;10.476;2024-02-15T06:42:12;42.65;;;13.25;;
75542;SDS011;64129;53.508;10.476;2024-02-15T06:44:44;45.88;;;14.25;;
75542;SDS011;64129;53.508;10.476;2024-02-15T06:47:12;36.78;;;12.07;;
75542;SDS011;64129;53.508;10.476;2024-02-15T06:49:39;35.08;;;12.07;;
75542;SDS011;64129;53.508;10.476;2024-02-15T06:52:09;39.05;;;13.10;;
75542;SDS011;64129;53.508;10.476;2024-02-15T06:54:41;42.55;;;11.93;;
75542;SDS011;64129;53.508;10.476;2024-02-15T06:57:08;32.83;;;12.05;;
75542;SDS011;64129;53.508;10.476;2024-02-15T06:59:35;36.75;;;11.82;;
75542;SDS011;64129;53.508;10.476;2024-02-15T07:02:03;42.42;;;12.88;;
75542;SDS011;64129;53.508;10.476;2024-02-15T07:04:34;37.78;;;12.52;;
75542;SDS011;64129;53.508;10.476;2024-02-15T07:07:00;34.47;;;12.85;;
75542;SDS011;64129;53.508;10.476;2024-02-15T07:09:28;32.88;;;11.40;;
75542;SDS011;64129;53.508;10.476;2024-02-15T07:11:54;34.75;;;11.73;;
75542;SDS011;64129;53.508;10.476;2024-02-15T07:14:22;33.08;;;12.35;;
75542;SDS011;64129;53.508;10.476;2024-02-15T07:16:49;36.30;;;11.25;;
75542;SDS011;64129;53.508;10.476;2024-02-15T07:19:16;31.27;;;11.68;;
75542;SDS011;64129;53.508;10.476;2024-02-15T07:21:44;46.53;;;13.10;;
75542;SDS011;64129;53.508;10.476;2024-02-15T07:24:13;22.45;;;9.57;;
75542;SDS011;64129;53.508;10.476;2024-02-15T07:26:40;39.50;;;13.23;;
75542;SDS011;64129;53.508;10.476;2024-02-15T07:29:07;41.00;;;13.85;;
75542;SDS011;64129;53.508;10.476;2024-02-15T07:31:34;37.05;;;14.05;;
75542;SDS011;64129;53.508;10.476;2024-02-15T07:34:00;36.65;;;12.35;;
75542;SDS011;64129;53.508;10.476;2024-02-15T07:36:27;39.83;;;14.10;;
75542;SDS011;64129;53.508;10.476;2024-02-15T07:38:54;41.50;;;13.40;;
75542;SDS011;64129;53.508;10.476;2024-02-15T07:41:27;37.28;;;11.95;;
75542;SDS011;64129;53.508;10.476;2024-02-15T07:43:54;28.38;;;10.75;;
75542;SDS011;64129;53.508;10.476;2024-02-15T07:46:21;29.33;;;11.88;;
75542;SDS011;64129;53.508;10.476;2024-02-15T07:48:48;33.33;;;12.82;;
75542;SDS011;64129;53.508;10.476;2024-02-15T07:51:19;35.70;;;12.82;;
75542;SDS011;64129;53.508;10.476;2024-02-15T07:53:46;35.95;;;12.75;;
75542;SDS011;64129;53.508;10.476;2024-02-15T07:56:14;35.95;;;12.50;;
75542;SDS011;64129;53.508;10.476;2024-02-15T07:58:42;29.27;;;11.32;;
75542;SDS011;64129;53.508;10.476;2024-02-15T08:01:13;31.60;;;11.30;;
75542;SDS011;64129;53.508;10.476;2024-02-15T08:03:40;30.38;;;11.48;;
75542;SDS011;64129;53.508;10.476;2024-02-15T08:06:13;34.42;;;12.40;;
75542;SDS011;64129;53.508;10.476;2024-02-15T08:08:45;32.08;;;10.45;;
75542;SDS011;64129;53.508;10.476;2024-02-15T08:11:13;33.08;;;11.88;;
75542;SDS011;64129;53.508;10.476;2024-02-15T08:16:14;36.78;;;12.35;;
75542;SDS011;64129;53.508;10.476;2024-02-15T08:18:44;32.08;;;12.07;;
75542;SDS011;64129;53.508;10.476;2024-02-15T08:21:12;31.45;;;12.57;;
75542;SDS011;64129;53.508;10.476;2024-02-15T08:23:39;30.60;;;11.88;;
75542;SDS011;64129;53.508;10.476;2024-02-15T08:26:05;29.83;;;11.98;;
75542;SDS011;64129;53.508;10.476;2024-02-15T08:28:32;29.83;;;11.50;;
75542;SDS011;64129;53.508;10.476;2024-02-15T08:30:58;30.65;;;11.15;;
75542;SDS011;64129;53.508;10.476;2024-02-15T08:33:25;26.60;;;10.23;;
75542;SDS011;64129;53.508;10.476;2024-02-15T08:35:54;29.02;;;11.25;;
75542;SDS011;64129;53.508;10.476;2024-02-15T08:38:22;26.88;;;11.13;;
75542;SDS011;64129;53.508;10.476;2024-02-15T08:40:49;30.48;;;11.73;;
75542;SDS011;64129;53.508;10.476;2024-02-15T08:43:15;28.30;;;10.48;;
75542;SDS011;64129;53.508;10.476;2024-02-15T08:45:42;22.77;;;9.63;;
75542;SDS011;64129;53.508;10.476;2024-02-15T08:48:10;29.52;;;11.57;;
75542;SDS011;64129;53.508;10.476;2024-02-15T08:50:38;27.52;;;11.27;;
75542;SDS011;64129;53.508;10.476;2024-02-15T08:53:05;24.92;;;10.13;;
75542;SDS011;64129;53.508;10.476;2024-02-15T08:55:32;23.83;;;9.90;;
75542;SDS011;64129;53.508;10.476;2024-02-15T08:58:02;23.60;;;9.80;;
75542;SDS011;64129;53.508;10.476;2024-02-15T09:02:56;24.05;;;9.68;;
75542;SDS011;64129;53.508;10.476;2024-02-15T09:05:23;23.75;;;10.48;;
75542;SDS011;64129;53.508;10.476;2024-02-15T09:07:50;19.13;;;8.65;;
75542;SDS011;64129;53.508;10.476;2024-02-15T09:10:17;20.30;;;9.95;;
75542;SDS011;64129;53.508;10.476;2024-02-15T09:12:44;18.00;;;9.00;;
75542;SDS011;64129;53.508;10.476;2024-02-15T09:15:13;18.90;;;8.15;;
75542;SDS011;64129;53.508;10.476;2024-02-15T09:17:41;17.65;;;8.48;;
75542;SDS011;64129;53.508;10.476;2024-02-15T09:20:09;19.83;;;8.18;;
75542;SDS011;64129;53.508;10.476;2024-02-15T09:22:50;13.65;;;6.38;;
75542;SDS011;64129;53.508;10.476;2024-02-15T09:25:17;16.80;;;7.60;;
75542;SDS011;64129;53.508;10.476;2024-02-15T09:27:44;15.73;;;8.13;;
75542;SDS011;64129;53.508;10.476;2024-02-15T09:30:12;14.15;;;7.32;;
75542;SDS011;64129;53.508;10.476;2024-02-15T09:32:39;15.40;;;7.50;;
75542;SDS011;64129;53.508;10.476;2024-02-15T09:35:06;16.58;;;7.18;;
75542;SDS011;64129;53.508;10.476;2024-02-15T09:37:37;12.88;;;7.32;;
75542;SDS011;64129;53.508;10.476;2024-02-15T09:40:10;12.10;;;6.55;;
75542;SDS011;64129;53.508;10.476;2024-02-15T09:42:38;12.60;;;6.43;;
75542;SDS011;64129;53.508;10.476;2024-02-15T09:45:08;12.23;;;6.40;;
75542;SDS011;64129;53.508;10.476;2024-02-15T09:47:39;13.30;;;6.90;;
75542;SDS011;64129;53.508;10.476;2024-02-15T09:50:09;14.07;;;6.25;;
75542;SDS011;64129;53.508;10.476;2024-02-15T09:52:59;13.82;;;7.30;;
75542;SDS011;64129;53.508;10.476;2024-02-15T09:55:28;11.02;;;6.50;;
75542;SDS011;64129;53.508;10.476;2024-02-15T09:57:56;14.93;;;7.57;;
75542;SDS011;64129;53.508;10.476;2024-02-15T10:00:32;14.57;;;7.78;;
75542;SDS011;64129;53.508;10.476;2024-02-15T10:03:07;12.63;;;7.10;;
75542;SDS011;64129;53.508;10.476;2024-02-15T10:05:36;12.40;;;7.03;;
75542;SDS011;64129;53.508;10.476;2024-02-15T10:08:07;13.07;;;7.65;;
75542;SDS011;64129;53.508;10.476;2024-02-15T10:10:46;13.10;;;7.70;;
75542;SDS011;64129;53.508;10.476;2024-02-15T10:13:16;13.80;;;7.47;;
75542;SDS011;64129;53.508;10.476;2024-02-15T10:15:52;14.35;;;7.28;;
75542;SDS011;64129;53.508;10.476;2024-02-15T10:18:19;13.48;;;7.78;;
75542;SDS011;64129;53.508;10.476;2024-02-15T10:20:59;11.45;;;7.43;;
75542;SDS011;64129;53.508;10.476;2024-02-15T10:23:38;11.93;;;6.63;;
75542;SDS011;64129;53.508;10.476;2024-02-15T10:26:42;13.82;;;7.70;;
75542;SDS011;64129;53.508;10.476;2024-02-15T10:29:10;12.65;;;7.32;;
75542;SDS011;64129;53.508;10.476;2024-02-15T10:31:51;13.70;;;6.53;;
75542;SDS011;64129;53.508;10.476;2024-02-15T10:34:33;15.05;;;8.38;;
75542;SDS011;64129;53.508;10.476;2024-02-15T10:37:11;11.68;;;7.10;;
75542;SDS011;64129;53.508;10.476;2024-02-15T10:39:40;15.73;;;8.95;;
75542;SDS011;64129;53.508;10.476;2024-02-15T10:42:25;16.58;;;8.55;;
75542;SDS011;64129;53.508;10.476;2024-02-15T10:45:28;17.13;;;9.38;;
75542;SDS011;64129;53.508;10.476;2024-02-15T10:48:08;17.52;;;9.30;;
75542;SDS011;64129;53.508;10.476;2024-02-15T10:51:05;17.92;;;9.50;;
75542;SDS011;64129;53.508;10.476;2024-02-15T10:53:42;17.60;;;10.65;;
75542;SDS011;64129;53.508;10.476;2024-02-15T10:56:31;16.25;;;9.63;;
75542;SDS011;64129;53.508;10.476;2024-02-15T11:02:00;20.23;;;11.85;;
75542;SDS011;64129;53.508;10.476;2024-02-15T11:05:06;21.20;;;12.25;;
75542;SDS011;64129;53.508;10.476;2024-02-15T11:07:50;19.00;;;11.15;;
75542;SDS011;64129;53.508;10.476;2024-02-15T11:10:30;18.48;;;10.90;;
75542;SDS011;64129;53.508;10.476;2024-02-15T11:13:07;21.27;;;12.15;;
75542;SDS011;64129;53.508;10.476;2024-02-15T11:15:47;20.30;;;12.27;;
75542;SDS011;64129;53.508;10.476;2024-02-15T11:18:46;21.55;;;11.27;;
75542;SDS011;64129;53.508;10.476;2024-02-15T11:21:18;21.60;;;11.75;;
75542;SDS011;64129;53.508;10.476;2024-02-15T11:24:36;25.50;;;13.68;;
75542;SDS011;64129;53.508;10.476;2024-02-15T11:27:12;22.85;;;12.10;;
75542;SDS011;64129;53.508;10.476;2024-02-15T11:29:58;23.25;;;12.88;;
75542;SDS011;64129;53.508;10.476;2024-02-15T11:35:19;27.23;;;12.77;;
75542;SDS011;64129;53.508;10.476;2024-02-15T11:43:44;27.27;;;13.35;;
75542;SDS011;64129;53.508;10.476;2024-02-15T11:46:38;24.75;;;14.32;;
75542;SDS011;64129;53.508;10.476;2024-02-15T11:49:14;29.35;;;14.18;;
75542;SDS011;64129;53.508;10.476;2024-02-15T11:51:48;27.10;;;14.88;;
75542;SDS011;64129;53.508;10.476;2024-02-15T11:54:33;26.23;;;14.93;;
75542;SDS011;64129;53.508;10.476;2024-02-15T11:57:13;28.60;;;15.75;;
75542;SDS011;64129;53.508;10.476;2024-02-15T12:00:06;25.42;;;13.93;;
75542;SDS011;64129;53.508;10.476;2024-02-15T12:03:41;25.05;;;15.40;;
75542;SDS011;64129;53.508;10.476;2024-02-15T12:06:37;26.30;;;14.75;;
75542;SDS011;64129;53.508;10.476;2024-02-15T12:09:39;26.98;;;15.52;;
75542;SDS011;64129;53.508;10.476;2024-02-15T12:12:24;26.58;;;14.48;;
75542;SDS011;64129;53.508;10.476;2024-02-15T12:15:33;22.08;;;14.55;;
75542;SDS011;64129;53.508;10.476;2024-02-15T12:18:25;32.28;;;15.68;;
75542;SDS011;64129;53.508;10.476;2024-02-15T12:21:26;25.60;;;13.32;;
75542;SDS011;64129;53.508;10.476;2024-02-15T12:24:01;27.75;;;16.25;;
75542;SDS011;64129;53.508;10.476;2024-02-15T12:26:42;25.73;;;15.18;;
75542;SDS011;64129;53.508;10.476;2024-02-15T12:29:22;27.05;;;15.65;;
75542;SDS011;64129;53.508;10.476;2024-02-15T12:32:03;30.67;;;16.67;;
75542;SDS011;64129;53.508;10.476;2024-02-15T12:34:40;28.90;;;15.57;;
75542;SDS011;64129;53.508;10.476;2024-02-15T12:37:21;27.67;;;15.13;;
75542;SDS011;64129;53.508;10.476;2024-02-15T12:39:50;29.13;;;16.88;;
75542;SDS011;64129;53.508;10.476;2024-02-15T12:42:42;28.67;;;16.88;;
75542;SDS011;64129;53.508;10.476;2024-02-15T12:45:32;26.05;;;15.20;;
75542;SDS011;64129;53.508;10.476;2024-02-15T12:48:11;28.20;;;16.83;;
75542;SDS011;64129;53.508;10.476;2024-02-15T12:50:41;27.55;;;15.82;;
75542;SDS011;64129;53.508;10.476;2024-02-15T12:53:21;26.77;;;15.65;;
75542;SDS011;64129;53.508;10.476;2024-02-15T12:55:57;24.08;;;14.35;;
75542;SDS011;64129;53.508;10.476;2024-02-15T12:58:27;26.98;;;15.20;;
75542;SDS011;64129;53.508;10.476;2024-02-15T13:00:59;27.88;;;14.40;;
75542;SDS011;64129;53.508;10.476;2024-02-15T13:03:52;28.33;;;15.38;;
75542;SDS011;64129;53.508;10.476;2024-02-15T13:06:19;25.33;;;15.15;;
75542;SDS011;64129;53.508;10.476;2024-02-15T13:09:15;24.13;;;13.40;;
75542;SDS011;64129;53.508;10.476;2024-02-15T13:12:02;22.67;;;13.30;;
75542;SDS011;64129;53.508;10.476;2024-02-15T13:14:35;20.55;;;13.50;;
75542;SDS011;64129;53.508;10.476;2024-02-15T13:17:02;26.50;;;14.88;;
75542;SDS011;64129;53.508;10.476;2024-02-15T13:19:29;23.55;;;13.32;;
75542;SDS011;64129;53.508;10.476;2024-02-15T13:22:02;23.05;;;13.32;;
75542;SDS011;64129;53.508;10.476;2024-02-15T13:24:30;20.15;;;13.27;;
75542;SDS011;64129;53.508;10.476;2024-02-15T13:27:10;19.50;;;12.07;;
75542;SDS011;64129;53.508;10.476;2024-02-15T13:29:41;21.13;;;13.20;;
75542;SDS011;64129;53.508;10.476;2024-02-15T13:32:08;18.40;;;12.18;;
75542;SDS011;64129;53.508;10.476;2024-02-15T13:34:44;16.75;;;11.25;;
75542;SDS011;64129;53.508;10.476;2024-02-15T13:37:19;18.00;;;10.68;;
75542;SDS011;64129;53.508;10.476;2024-02-15T13:39:59;14.60;;;8.43;;
75542;SDS011;64129;53.508;10.476;2024-02-15T13:42:47;16.48;;;10.57;;
75542;SDS011;64129;53.508;10.476;2024-02-15T13:45:29;13.55;;;9.73;;
75542;SDS011;64129;53.508;10.476;2024-02-15T13:48:17;15.23;;;8.48;;
75542;SDS011;64129;53.508;10.476;2024-02-15T13:50:54;12.40;;;8.48;;
75542;SDS011;64129;53.508;10.476;2024-02-15T13:53:22;11.48;;;8.30;;
75542;SDS011;64129;53.508;10.476;2024-02-15T13:56:00;9.20;;;6.78;;
75542;SDS011;64129;53.508;10.476;2024-02-15T13:58:27;10.50;;;7.53;;
75542;SDS011;64129;53.508;10.476;2024-02-15T14:00:59;9.18;;;6.50;;
75542;SDS011;64129;53.508;10.476;2024-02-15T14:06:36;7.75;;;5.65;;
75542;SDS011;64129;53.508;10.476;2024-02-15T14:09:10;7.70;;;5.82;;
75542;SDS011;64129;53.508;10.476;2024-02-15T14:11:44;9.35;;;5.30;;
75542;SDS011;64129;53.508;10.476;2024-02-15T14:14:18;7.63;;;5.13;;
75542;SDS011;64129;53.508;10.476;2024-02-15T14:16:45;8.85;;;6.20;;
75542;SDS011;64129;53.508;10.476;2024-02-15T14:19:27;7.30;;;5.32;;
75542;SDS011;64129;53.508;10.476;2024-02-15T14:22:13;8.07;;;5.68;;
75542;SDS011;64129;53.508;10.476;2024-02-15T14:24:47;5.85;;;5.18;;
75542;SDS011;64129;53.508;10.476;2024-02-15T14:27:28;6.65;;;5.22;;
75542;SDS011;64129;53.508;10.476;2024-02-15T14:29:55;8.32;;;6.15;;
75542;SDS011;64129;53.508;10.476;2024-02-15T14:32:41;6.28;;;5.55;;
75542;SDS011;64129;53.508;10.476;2024-02-15T14:38:48;7.93;;;5.85;;
75542;SDS011;64129;53.508;10.476;2024-02-15T14:41:15;6.80;;;5.53;;
75542;SDS011;64129;53.508;10.476;2024-02-15T14:44:10;8.82;;;5.97;;
75542;SDS011;64129;53.508;10.476;2024-02-15T14:46:41;6.30;;;4.80;;
75542;SDS011;64129;53.508;10.476;2024-02-15T14:49:13;9.38;;;6.38;;
75542;SDS011;64129;53.508;10.476;2024-02-15T14:51:42;8.30;;;5.85;;
75542;SDS011;64129;53.508;10.476;2024-02-15T14:54:14;6.55;;;3.72;;
75542;SDS011;64129;53.508;10.476;2024-02-15T14:57:01;7.90;;;5.88;;
75542;SDS011;64129;53.508;10.476;2024-02-15T14:59:30;5.78;;;5.10;;
75542;SDS011;64129;53.508;10.476;2024-02-15T15:01:57;7.30;;;6.55;;
75542;SDS011;64129;53.508;10.476;2024-02-15T15:04:36;10.85;;;6.22;;
75542;SDS011;64129;53.508;10.476;2024-02-15T15:07:23;8.30;;;6.90;;
75542;SDS011;64129;53.508;10.476;2024-02-15T15:10:16;9.48;;;6.43;;
75542;SDS011;64129;53.508;10.476;2024-02-15T15:13:11;7.78;;;6.15;;
75542;SDS011;64129;53.508;10.476;2024-02-15T15:15:44;9.30;;;6.28;;